| time (UTC) | temp C | wind direction | speed KPH | gust KPH | rain 1hr cm | rain 24hr cm | rain mn cm | humidity % | barometer mb |
| 20260508202518 | 21 | 23 | 9.7 | 19.3 | 0.00 | 0.00 | 0.00 | 29 | 1018.8 |
| 20260508201523 | 21 | 0 | 11.3 | 19.3 | 0.00 | 0.00 | 0.00 | 30 | 1018.8 |
| 20260508200520 | 21 | 45 | 8.0 | 16.1 | 0.00 | 0.00 | 0.00 | 30 | 1018.9 |
| 20260508195517 | 21 | 23 | 8.0 | 16.1 | 0.00 | 0.00 | 0.00 | 30 | 1019.0 |
| 20260508194518 | 21 | 0 | 9.7 | 19.3 | 0.00 | 0.00 | 0.00 | 28 | 1019.0 |
| 20260508193517 | 21 | 23 | 9.7 | 20.9 | 0.00 | 0.00 | 0.00 | 30 | 1019.2 |
| 20260508192519 | 20 | 68 | 9.7 | 20.9 | 0.00 | 0.00 | 0.00 | 32 | 1019.1 |
| 20260508191517 | 20 | 45 | 9.7 | 19.3 | 0.00 | 0.00 | 0.00 | 31 | 1019.1 |
| 20260508190517 | 20 | 23 | 9.7 | 20.9 | 0.00 | 0.00 | 0.00 | 30 | 1019.3 |
| 20260508185517 | 20 | 45 | 9.7 | 19.3 | 0.00 | 0.00 | 0.00 | 30 | 1019.1 |
| 20260508184523 | 20 | 45 | 9.7 | 20.9 | 0.00 | 0.00 | 0.00 | 29 | 1019.2 |
| 20260508183539 | 20 | 68 | 6.4 | 14.5 | 0.00 | 0.00 | 0.00 | 33 | 1019.4 |
| 20260508182517 | 20 | 45 | 4.8 | 14.5 | 0.00 | 0.00 | 0.00 | 32 | 1019.7 |
| 20260508181540 | 21 | 315 | 4.8 | 12.9 | 0.00 | 0.00 | 0.00 | 32 | 1020.3 |
| 20260508180517 | 20 | 0 | 8.0 | 16.1 | 0.00 | 0.00 | 0.00 | 31 | 1019.9 |
| 20260508175517 | 20 | 0 | 6.4 | 14.5 | 0.00 | 0.00 | 0.00 | 30 | 1019.9 |
| 20260508174517 | 20 | 90 | 4.8 | 11.3 | 0.00 | 0.00 | 0.00 | 31 | 1019.4 |
| 20260508173517 | 20 | 315 | 6.4 | 17.7 | 0.00 | 0.00 | 0.00 | 30 | 1019.4 |
| 20260508172517 | 20 | 315 | 4.8 | 11.3 | 0.00 | 0.00 | 0.00 | 30 | 1019.5 |
| 20260508171519 | 19 | 315 | 3.2 | 11.3 | 0.00 | 0.00 | 0.00 | 32 | 1019.4 |
| 20260508170517 | 18 | 315 | 6.4 | 14.5 | 0.00 | 0.00 | 0.00 | 35 | 1019.1 |
| 20260508165521 | 18 | 338 | 8.0 | 14.5 | 0.00 | 0.00 | 0.00 | 36 | 1019.5 |
| 20260508164518 | 18 | 315 | 4.8 | 9.7 | 0.00 | 0.00 | 0.00 | 37 | 1019.4 |
| 20260508163517 | 18 | 315 | 3.2 | 11.3 | 0.00 | 0.00 | 0.00 | 37 | 1019.4 |
| 20260508162517 | 18 | 315 | 3.2 | 6.4 | 0.00 | 0.00 | 0.00 | 40 | 1019.4 |
| 20260508161517 | 18 | 315 | 3.2 | 6.4 | 0.00 | 0.00 | 0.00 | 40 | 1019.5 |
| 20260508160522 | 18 | 338 | 3.2 | 6.4 | 0.00 | 0.00 | 0.00 | 41 | 1019.5 |
| 20260508155517 | 18 | 338 | 3.2 | 4.8 | 0.00 | 0.00 | 0.00 | 45 | 1019.2 |
| 20260508154518 | 17 | 23 | 3.2 | 4.8 | 0.00 | 0.00 | 0.00 | 45 | 1019.2 |
| 20260508153517 | 17 | 293 | 1.6 | 8.0 | 0.00 | 0.00 | 0.00 | 48 | 1018.9 |
| 20260508152522 | 17 | 315 | 1.6 | 6.4 | 0.00 | 0.00 | 0.00 | 48 | 1019.1 |
| 20260508151526 | 17 | 315 | 1.6 | 4.8 | 0.00 | 0.00 | 0.00 | 43 | 1019.1 |
| 20260508150519 | 16 | 45 | 3.2 | 6.4 | 0.00 | 0.00 | 0.00 | 42 | 1018.7 |
| 20260508145517 | 17 | 23 | 3.2 | 6.4 | 0.00 | 0.00 | 0.00 | 41 | 1019.6 |
| 20260508144517 | 16 | 45 | 1.6 | 4.8 | 0.00 | 0.00 | 0.00 | 41 | 1019.3 |
| 20260508143517 | 16 | 68 | 4.8 | 9.7 | 0.00 | 0.00 | 0.00 | 42 | 1019.3 |
| 20260508142517 | 16 | 90 | 1.6 | 3.2 | 0.00 | 0.00 | 0.00 | 45 | 1019.7 |
| 20260508141517 | 15 | 90 | 4.8 | 6.4 | 0.00 | 0.00 | 0.00 | 46 | 1019.3 |
| 20260508140517 | 15 | 0.0 | 1.6 | 0.00 | 0.00 | 0.00 | 47 | 1018.9 | |
| 20260508135517 | 13 | 0.0 | 1.6 | 0.00 | 0.00 | 0.00 | 47 | 1019.2 | |
| 20260508134517 | 12 | 113 | 3.2 | 6.4 | 0.00 | 0.00 | 0.00 | 49 | 1018.6 |
| 20260508133523 | 12 | 135 | 3.2 | 4.8 | 0.00 | 0.00 | 0.00 | 51 | 1018.5 |
| 20260508132517 | 12 | 113 | 6.4 | 9.7 | 0.00 | 0.00 | 0.00 | 50 | 1018.4 |
| 20260508131537 | 11 | 113 | 4.8 | 9.7 | 0.00 | 0.00 | 0.00 | 49 | 1017.9 |
| 20260508130517 | 11 | 113 | 6.4 | 11.3 | 0.00 | 0.00 | 0.00 | 49 | 1017.7 |
| 20260508125517 | 11 | 113 | 4.8 | 9.7 | 0.00 | 0.00 | 0.00 | 49 | 1018.1 |
| 20260508124517 | 12 | 135 | 4.8 | 6.4 | 0.00 | 0.00 | 0.00 | 47 | 1017.9 |
| 20260508123537 | 12 | 113 | 6.4 | 8.0 | 0.00 | 0.00 | 0.00 | 46 | 1017.9 |
| 20260508122518 | 12 | 135 | 6.4 | 11.3 | 0.00 | 0.00 | 0.00 | 47 | 1017.7 |
| 20260508121522 | 11 | 135 | 1.6 | 4.8 | 0.00 | 0.00 | 0.00 | 47 | 1017.7 |
| 20260508120518 | 11 | 135 | 4.8 | 8.0 | 0.00 | 0.00 | 0.00 | 48 | 1017.7 |
| 20260508115517 | 12 | 135 | 4.8 | 6.4 | 0.00 | 0.00 | 0.00 | 48 | 1017.7 |
| 20260508114516 | 12 | 135 | 3.2 | 6.4 | 0.00 | 0.00 | 0.00 | 47 | 1018.0 |
| 20260508113517 | 12 | 135 | 4.8 | 9.7 | 0.00 | 0.00 | 0.00 | 46 | 1018.1 |
| 20260508112537 | 12 | 135 | 4.8 | 8.0 | 0.00 | 0.00 | 0.00 | 46 | 1018.4 |
| 20260508111517 | 12 | 135 | 4.8 | 8.0 | 0.00 | 0.00 | 0.00 | 46 | 1017.9 |
| 20260508110520 | 12 | 135 | 4.8 | 6.4 | 0.00 | 0.00 | 0.00 | 46 | 1017.9 |
| 20260508105516 | 12 | 135 | 3.2 | 6.4 | 0.00 | 0.00 | 0.00 | 46 | 1017.9 |
| 20260508104516 | 13 | 135 | 4.8 | 6.4 | 0.00 | 0.00 | 0.00 | 45 | 1017.8 |
| 20260508103520 | 13 | 135 | 4.8 | 6.4 | 0.00 | 0.00 | 0.00 | 44 | 1018.1 |
| 20260508102518 | 13 | 135 | 6.4 | 8.0 | 0.00 | 0.00 | 0.00 | 45 | 1018.0 |
| 20260508101517 | 12 | 113 | 4.8 | 6.4 | 0.00 | 0.00 | 0.00 | 46 | 1018.0 |
| 20260508100520 | 13 | 113 | 6.4 | 9.7 | 0.00 | 0.00 | 0.00 | 44 | 1018.1 |
| 20260508095516 | 13 | 135 | 4.8 | 6.4 | 0.00 | 0.00 | 0.00 | 43 | 1018.1 |
| 20260508094517 | 13 | 135 | 4.8 | 6.4 | 0.00 | 0.00 | 0.00 | 43 | 1018.2 |
| 20260508093516 | 13 | 135 | 4.8 | 8.0 | 0.00 | 0.00 | 0.00 | 43 | 1018.2 |
| 20260508092517 | 13 | 135 | 6.4 | 11.3 | 0.00 | 0.00 | 0.00 | 42 | 1017.8 |
| 20260508091517 | 13 | 158 | 3.2 | 6.4 | 0.00 | 0.00 | 0.00 | 43 | 1017.9 |
| 20260508090516 | 13 | 135 | 4.8 | 9.7 | 0.00 | 0.00 | 0.00 | 43 | 1018.0 |
| 20260508085516 | 13 | 135 | 3.2 | 6.4 | 0.00 | 0.00 | 0.00 | 44 | 1017.8 |
| 20260508084516 | 13 | 135 | 3.2 | 6.4 | 0.00 | 0.00 | 0.00 | 44 | 1017.8 |
| 20260508083520 | 14 | 113 | 9.7 | 12.9 | 0.00 | 0.00 | 0.00 | 42 | 1018.0 |
| 20260508082516 | 13 | 113 | 9.7 | 11.3 | 0.00 | 0.00 | 0.00 | 42 | 1017.7 |
| 20260508081536 | 15 | 113 | 6.4 | 9.7 | 0.00 | 0.00 | 0.00 | 40 | 1018.1 |
| 20260508080516 | 14 | 135 | 6.4 | 9.7 | 0.00 | 0.00 | 0.00 | 40 | 1017.9 |
| 20260508075520 | 13 | 113 | 8.0 | 14.5 | 0.00 | 0.00 | 0.00 | 41 | 1017.7 |
| 20260508074516 | 13 | 135 | 4.8 | 8.0 | 0.00 | 0.00 | 0.00 | 43 | 1017.8 |
| 20260508073516 | 14 | 135 | 8.0 | 12.9 | 0.00 | 0.00 | 0.00 | 41 | 1018.4 |
| 20260508072516 | 14 | 135 | 8.0 | 11.3 | 0.00 | 0.00 | 0.00 | 41 | 1018.4 |
| 20260508071516 | 14 | 135 | 6.4 | 11.3 | 0.00 | 0.00 | 0.00 | 40 | 1018.4 |
| 20260508070516 | 15 | 135 | 8.0 | 12.9 | 0.00 | 0.00 | 0.00 | 39 | 1018.3 |
| 20260508065518 | 15 | 135 | 8.0 | 11.3 | 0.00 | 0.00 | 0.00 | 39 | 1017.9 |
| 20260508064516 | 15 | 135 | 8.0 | 11.3 | 0.00 | 0.00 | 0.00 | 39 | 1017.8 |
| 20260508063536 | 15 | 135 | 8.0 | 12.9 | 0.00 | 0.00 | 0.00 | 39 | 1017.7 |
| 20260508062516 | 15 | 135 | 6.4 | 11.3 | 0.00 | 0.00 | 0.00 | 40 | 1017.3 |
| 20260508061516 | 15 | 135 | 6.4 | 11.3 | 0.00 | 0.00 | 0.00 | 40 | 1017.2 |
| 20260508060516 | 15 | 135 | 4.8 | 6.4 | 0.00 | 0.00 | 0.00 | 40 | 1017.4 |
| 20260508055516 | 15 | 135 | 6.4 | 11.3 | 0.00 | 0.00 | 0.00 | 39 | 1017.4 |
| 20260508054517 | 15 | 135 | 6.4 | 8.0 | 0.00 | 0.00 | 0.00 | 39 | 1017.4 |
| 20260508053517 | 15 | 135 | 6.4 | 11.3 | 0.00 | 0.00 | 0.00 | 39 | 1017.5 |
| 20260508052519 | 15 | 135 | 8.0 | 11.3 | 0.00 | 0.00 | 0.00 | 39 | 1017.1 |
| 20260508051516 | 15 | 113 | 6.4 | 9.7 | 0.00 | 0.00 | 0.00 | 39 | 1017.1 |
| 20260508050537 | 15 | 135 | 8.0 | 11.3 | 0.00 | 0.00 | 0.00 | 39 | 1017.2 |
| 20260508045516 | 15 | 113 | 6.4 | 9.7 | 0.00 | 0.00 | 0.00 | 39 | 1017.2 |
| 20260508044520 | 15 | 135 | 6.4 | 11.3 | 0.00 | 0.00 | 0.00 | 39 | 1017.3 |
| 20260508043516 | 16 | 113 | 6.4 | 9.7 | 0.00 | 0.00 | 0.00 | 38 | 1017.2 |
| 20260508042516 | 15 | 113 | 6.4 | 11.3 | 0.00 | 0.00 | 0.00 | 39 | 1016.8 |
| 20260508041516 | 16 | 135 | 8.0 | 12.9 | 0.00 | 0.00 | 0.00 | 38 | 1016.9 |
| 20260508040516 | 16 | 113 | 9.7 | 11.3 | 0.00 | 0.00 | 0.00 | 38 | 1016.8 |
| 20260508035539 | 16 | 113 | 9.7 | 14.5 | 0.00 | 0.00 | 0.00 | 38 | 1016.4 |
| 20260508034516 | 16 | 135 | 9.7 | 14.5 | 0.00 | 0.00 | 0.00 | 37 | 1016.4 |
| 20260508033516 | 15 | 113 | 11.3 | 12.9 | 0.00 | 0.00 | 0.00 | 39 | 1016.4 |
| 20260508032536 | 15 | 113 | 4.8 | 8.0 | 0.00 | 0.00 | 0.00 | 39 | 1016.0 |
| 20260508031516 | 16 | 113 | 8.0 | 11.3 | 0.00 | 0.00 | 0.00 | 38 | 1016.0 |
| 20260508030516 | 16 | 113 | 8.0 | 11.3 | 0.00 | 0.00 | 0.00 | 38 | 1016.0 |
| 20260508025521 | 16 | 113 | 4.8 | 9.7 | 0.00 | 0.00 | 0.00 | 37 | 1016.3 |
| 20260508024516 | 17 | 135 | 4.8 | 6.4 | 0.00 | 0.00 | 0.00 | 35 | 1016.5 |
| 20260508023517 | 18 | 158 | 3.2 | 6.4 | 0.00 | 0.00 | 0.00 | 32 | 1016.7 |
| 20260508022517 | 18 | 158 | 3.2 | 6.4 | 0.00 | 0.00 | 0.00 | 32 | 1016.4 |
| 20260508021536 | 19 | 0.0 | 3.2 | 0.00 | 0.00 | 0.00 | 32 | 1016.5 | |
| 20260508020516 | 19 | 135 | 3.2 | 4.8 | 0.00 | 0.00 | 0.00 | 34 | 1016.4 |
| 20260508015516 | 20 | 135 | 1.6 | 4.8 | 0.00 | 0.00 | 0.00 | 34 | 1015.8 |
| 20260508014516 | 20 | 135 | 3.2 | 6.4 | 0.00 | 0.00 | 0.00 | 33 | 1016.3 |
| 20260508013516 | 21 | 0.0 | 1.6 | 0.00 | 0.00 | 0.00 | 29 | 1016.5 | |
| 20260508012517 | 21 | 0.0 | 0.0 | 0.00 | 0.00 | 0.00 | 30 | 1016.4 | |
| 20260508011516 | 21 | 0.0 | 1.6 | 0.00 | 0.00 | 0.00 | 27 | 1016.3 | |
| 20260508010516 | 21 | 0.0 | 1.6 | 0.00 | 0.00 | 0.00 | 26 | 1016.5 | |
| 20260508005518 | 21 | 270 | 1.6 | 4.8 | 0.00 | 0.00 | 0.00 | 28 | 1016.7 |
| 20260508004536 | 21 | 23 | 1.6 | 4.8 | 0.00 | 0.00 | 0.00 | 26 | 1016.3 |
| 20260508003556 | 21 | 45 | 1.6 | 6.4 | 0.00 | 0.00 | 0.00 | 26 | 1016.9 |
| 20260508002516 | 21 | 23 | 3.2 | 6.4 | 0.00 | 0.00 | 0.00 | 26 | 1017.0 |
| 20260508001518 | 22 | 23 | 4.8 | 12.9 | 0.00 | 0.00 | 0.00 | 26 | 1017.1 |
| 20260508000516 | 22 | 0 | 6.4 | 14.5 | 0.00 | 0.00 | 0.00 | 26 | 1017.2 |
| 20260507235516 | 22 | 23 | 6.4 | 12.9 | 0.00 | 0.00 | 0.00 | 26 | 1017.2 |
| 20260507234516 | 21 | 338 | 9.7 | 16.1 | 0.00 | 0.00 | 0.00 | 26 | 1017.3 |
| 20260507233516 | 21 | 0 | 9.7 | 17.7 | 0.00 | 0.00 | 0.00 | 28 | 1017.5 |
| 20260507232517 | 22 | 23 | 11.3 | 19.3 | 0.00 | 0.00 | 0.00 | 28 | 1017.2 |
| 20260507231516 | 22 | 315 | 11.3 | 20.9 | 0.00 | 0.00 | 0.00 | 28 | 1017.4 |
| 20260507230516 | 22 | 0 | 11.3 | 19.3 | 0.00 | 0.00 | 0.00 | 27 | 1017.8 |
| 20260507225516 | 22 | 293 | 12.9 | 22.5 | 0.00 | 0.00 | 0.00 | 27 | 1017.8 |
| 20260507224515 | 22 | 270 | 8.0 | 17.7 | 0.00 | 0.00 | 0.00 | 25 | 1017.8 |
| 20260507223516 | 22 | 315 | 11.3 | 19.3 | 0.00 | 0.00 | 0.00 | 25 | 1017.8 |
| 20260507222515 | 22 | 315 | 9.7 | 16.1 | 0.00 | 0.00 | 0.00 | 25 | 1017.9 |
| 20260507220515 | 22 | 293 | 12.9 | 24.1 | 0.00 | 0.00 | 0.00 | 26 | 1018.5 |
| 20260507215518 | 22 | 293 | 9.7 | 19.3 | 0.00 | 0.00 | 0.00 | 25 | 1018.3 |
| 20260507214517 | 22 | 293 | 11.3 | 20.9 | 0.00 | 0.00 | 0.00 | 26 | 1018.5 |
| 20260507213518 | 22 | 315 | 12.9 | 27.4 | 0.00 | 0.00 | 0.00 | 26 | 1018.7 |
| 20260507212518 | 22 | 315 | 11.3 | 24.1 | 0.00 | 0.00 | 0.00 | 27 | 1019.3 |
| 20260507211517 | 22 | 315 | 6.4 | 17.7 | 0.00 | 0.00 | 0.00 | 26 | 1019.6 |
| 20260507210518 | 21 | 293 | 8.0 | 17.7 | 0.00 | 0.00 | 0.00 | 26 | 1019.4 |
| 20260507205519 | 21 | 270 | 6.4 | 20.9 | 0.00 | 0.00 | 0.00 | 25 | 1019.7 |
| 20260507204520 | 21 | 270 | 16.1 | 29.0 | 0.00 | 0.00 | 0.00 | 25 | 1019.6 |
| 20260507203518 | 21 | 315 | 9.7 | 20.9 | 0.00 | 0.00 | 0.00 | 26 | 1019.7 |